sensor_id;sensor_type;location;lat;lon;timestamp;P1;durP1;ratioP1;P2;durP2;ratioP2
75156;SDS011;63736;50.076;8.198;2023-02-28T00:01:19;183.77;;;27.85;;
75156;SDS011;63736;50.076;8.198;2023-02-28T00:03:45;182.60;;;29.00;;
75156;SDS011;63736;50.076;8.198;2023-02-28T00:06:11;181.13;;;29.37;;
75156;SDS011;63736;50.076;8.198;2023-02-28T00:08:36;178.90;;;29.85;;
75156;SDS011;63736;50.076;8.198;2023-02-28T00:11:03;174.80;;;29.67;;
75156;SDS011;63736;50.076;8.198;2023-02-28T00:13:31;170.18;;;29.20;;
75156;SDS011;63736;50.076;8.198;2023-02-28T00:18:33;191.35;;;28.13;;
75156;SDS011;63736;50.076;8.198;2023-02-28T00:20:58;196.80;;;33.95;;
75156;SDS011;63736;50.076;8.198;2023-02-28T00:23:24;192.35;;;29.02;;
75156;SDS011;63736;50.076;8.198;2023-02-28T00:25:50;207.48;;;32.22;;
75156;SDS011;63736;50.076;8.198;2023-02-28T00:28:16;208.35;;;27.92;;
75156;SDS011;63736;50.076;8.198;2023-02-28T00:30:41;186.00;;;28.60;;
75156;SDS011;63736;50.076;8.198;2023-02-28T00:33:07;186.23;;;27.90;;
75156;SDS011;63736;50.076;8.198;2023-02-28T00:35:32;201.40;;;28.75;;
75156;SDS011;63736;50.076;8.198;2023-02-28T00:37:57;240.40;;;27.77;;
75156;SDS011;63736;50.076;8.198;2023-02-28T00:40:23;206.80;;;28.10;;
75156;SDS011;63736;50.076;8.198;2023-02-28T00:42:48;197.90;;;27.80;;
75156;SDS011;63736;50.076;8.198;2023-02-28T00:45:13;202.60;;;28.20;;
75156;SDS011;63736;50.076;8.198;2023-02-28T00:47:39;222.30;;;27.60;;
75156;SDS011;63736;50.076;8.198;2023-02-28T00:50:04;245.23;;;27.53;;
75156;SDS011;63736;50.076;8.198;2023-02-28T00:52:30;203.35;;;28.55;;
75156;SDS011;63736;50.076;8.198;2023-02-28T00:54:55;207.53;;;28.37;;
75156;SDS011;63736;50.076;8.198;2023-02-28T00:57:21;197.10;;;27.50;;
75156;SDS011;63736;50.076;8.198;2023-02-28T00:59:46;198.63;;;28.00;;
75156;SDS011;63736;50.076;8.198;2023-02-28T01:02:11;196.20;;;28.57;;
75156;SDS011;63736;50.076;8.198;2023-02-28T01:04:37;402.87;;;81.57;;
75156;SDS011;63736;50.076;8.198;2023-02-28T01:07:02;452.00;;;72.30;;
75156;SDS011;63736;50.076;8.198;2023-02-28T01:09:27;470.50;;;67.90;;
75156;SDS011;63736;50.076;8.198;2023-02-28T01:14:18;344.17;;;50.60;;
75156;SDS011;63736;50.076;8.198;2023-02-28T01:16:43;408.50;;;76.97;;
75156;SDS011;63736;50.076;8.198;2023-02-28T01:21:34;368.90;;;75.60;;
75156;SDS011;63736;50.076;8.198;2023-02-28T01:24:00;309.55;;;37.58;;
75156;SDS011;63736;50.076;8.198;2023-02-28T01:26:25;284.83;;;36.77;;
75156;SDS011;63736;50.076;8.198;2023-02-28T01:28:51;278.57;;;29.23;;
75156;SDS011;63736;50.076;8.198;2023-02-28T01:31:18;317.98;;;40.67;;
75156;SDS011;63736;50.076;8.198;2023-02-28T01:33:43;359.83;;;65.73;;
75156;SDS011;63736;50.076;8.198;2023-02-28T01:36:13;296.53;;;35.23;;
75156;SDS011;63736;50.076;8.198;2023-02-28T01:38:40;300.83;;;36.83;;
75156;SDS011;63736;50.076;8.198;2023-02-28T01:41:06;285.53;;;31.27;;
75156;SDS011;63736;50.076;8.198;2023-02-28T01:43:52;294.58;;;34.00;;
75156;SDS011;63736;50.076;8.198;2023-02-28T01:46:20;299.05;;;38.58;;
75156;SDS011;63736;50.076;8.198;2023-02-28T01:48:54;287.80;;;30.80;;
75156;SDS011;63736;50.076;8.198;2023-02-28T01:51:29;317.88;;;44.42;;
75156;SDS011;63736;50.076;8.198;2023-02-28T01:54:01;367.37;;;63.43;;
75156;SDS011;63736;50.076;8.198;2023-02-28T01:56:38;394.90;;;78.65;;
75156;SDS011;63736;50.076;8.198;2023-02-28T01:59:04;399.97;;;79.77;;
75156;SDS011;63736;50.076;8.198;2023-02-28T02:01:30;404.35;;;87.50;;
75156;SDS011;63736;50.076;8.198;2023-02-28T02:03:57;413.53;;;77.03;;
75156;SDS011;63736;50.076;8.198;2023-02-28T02:06:43;434.70;;;85.30;;
75156;SDS011;63736;50.076;8.198;2023-02-28T02:09:11;432.77;;;75.33;;
75156;SDS011;63736;50.076;8.198;2023-02-28T02:11:36;369.45;;;68.10;;
75156;SDS011;63736;50.076;8.198;2023-02-28T02:14:09;437.63;;;75.43;;
75156;SDS011;63736;50.076;8.198;2023-02-28T02:17:10;454.97;;;75.33;;
75156;SDS011;63736;50.076;8.198;2023-02-28T02:28:09;447.45;;;77.80;;
75156;SDS011;63736;50.076;8.198;2023-02-28T02:33:27;410.93;;;77.67;;
75156;SDS011;63736;50.076;8.198;2023-02-28T02:36:10;400.95;;;78.90;;
75156;SDS011;63736;50.076;8.198;2023-02-28T02:38:50;406.73;;;79.40;;
75156;SDS011;63736;50.076;8.198;2023-02-28T02:41:24;416.95;;;85.75;;
75156;SDS011;63736;50.076;8.198;2023-02-28T02:44:07;407.47;;;78.90;;
75156;SDS011;63736;50.076;8.198;2023-02-28T02:46:39;414.60;;;79.00;;
75156;SDS011;63736;50.076;8.198;2023-02-28T02:49:09;416.60;;;79.80;;
75156;SDS011;63736;50.076;8.198;2023-02-28T02:51:40;419.57;;;79.97;;
75156;SDS011;63736;50.076;8.198;2023-02-28T02:56:40;426.20;;;76.40;;
75156;SDS011;63736;50.076;8.198;2023-02-28T02:59:09;436.00;;;74.23;;
75156;SDS011;63736;50.076;8.198;2023-02-28T03:01:38;434.67;;;73.43;;
75156;SDS011;63736;50.076;8.198;2023-02-28T03:04:07;434.75;;;75.05;;
75156;SDS011;63736;50.076;8.198;2023-02-28T03:06:35;438.83;;;74.43;;
75156;SDS011;63736;50.076;8.198;2023-02-28T03:11:26;452.93;;;80.63;;
75156;SDS011;63736;50.076;8.198;2023-02-28T03:14:02;487.90;;;71.20;;
75156;SDS011;63736;50.076;8.198;2023-02-28T03:22:39;452.50;;;74.20;;
75156;SDS011;63736;50.076;8.198;2023-02-28T03:30:55;407.27;;;78.13;;
75156;SDS011;63736;50.076;8.198;2023-02-28T03:33:30;417.50;;;76.13;;
75156;SDS011;63736;50.076;8.198;2023-02-28T03:36:18;425.35;;;74.30;;
75156;SDS011;63736;50.076;8.198;2023-02-28T03:38:50;427.10;;;73.90;;
75156;SDS011;63736;50.076;8.198;2023-02-28T03:41:22;430.10;;;82.63;;
75156;SDS011;63736;50.076;8.198;2023-02-28T03:43:58;425.40;;;74.60;;
75156;SDS011;63736;50.076;8.198;2023-02-28T03:46:29;437.52;;;84.38;;
75156;SDS011;63736;50.076;8.198;2023-02-28T03:49:03;431.93;;;73.17;;
75156;SDS011;63736;50.076;8.198;2023-02-28T03:51:36;432.80;;;72.80;;
75156;SDS011;63736;50.076;8.198;2023-02-28T03:54:06;431.25;;;73.80;;
75156;SDS011;63736;50.076;8.198;2023-02-28T03:57:04;430.03;;;75.90;;
75156;SDS011;63736;50.076;8.198;2023-02-28T03:59:39;458.20;;;72.67;;
75156;SDS011;63736;50.076;8.198;2023-02-28T04:02:09;434.57;;;76.50;;
75156;SDS011;63736;50.076;8.198;2023-02-28T04:04:34;428.50;;;77.65;;
75156;SDS011;63736;50.076;8.198;2023-02-28T04:07:01;426.30;;;76.57;;
75156;SDS011;63736;50.076;8.198;2023-02-28T04:09:28;428.43;;;76.50;;
75156;SDS011;63736;50.076;8.198;2023-02-28T04:11:53;425.90;;;77.60;;
75156;SDS011;63736;50.076;8.198;2023-02-28T04:14:20;413.15;;;77.93;;
75156;SDS011;63736;50.076;8.198;2023-02-28T04:16:46;410.20;;;80.00;;
75156;SDS011;63736;50.076;8.198;2023-02-28T04:19:12;407.63;;;79.00;;
75156;SDS011;63736;50.076;8.198;2023-02-28T04:21:39;405.65;;;78.22;;
75156;SDS011;63736;50.076;8.198;2023-02-28T04:24:08;402.65;;;78.95;;
75156;SDS011;63736;50.076;8.198;2023-02-28T04:26:39;405.90;;;80.10;;
75156;SDS011;63736;50.076;8.198;2023-02-28T04:29:06;407.97;;;80.37;;
75156;SDS011;63736;50.076;8.198;2023-02-28T04:31:32;407.63;;;84.47;;
75156;SDS011;63736;50.076;8.198;2023-02-28T04:33:58;402.25;;;79.10;;
75156;SDS011;63736;50.076;8.198;2023-02-28T04:36:24;406.83;;;85.60;;
75156;SDS011;63736;50.076;8.198;2023-02-28T04:38:50;407.30;;;81.17;;
75156;SDS011;63736;50.076;8.198;2023-02-28T04:41:15;410.45;;;78.10;;
75156;SDS011;63736;50.076;8.198;2023-02-28T04:43:41;424.17;;;75.23;;
75156;SDS011;63736;50.076;8.198;2023-02-28T04:46:07;417.30;;;76.90;;
75156;SDS011;63736;50.076;8.198;2023-02-28T04:48:34;418.00;;;77.43;;
75156;SDS011;63736;50.076;8.198;2023-02-28T04:51:01;422.60;;;78.73;;
75156;SDS011;63736;50.076;8.198;2023-02-28T04:53:31;419.07;;;75.17;;
75156;SDS011;63736;50.076;8.198;2023-02-28T04:55:57;424.77;;;76.20;;
75156;SDS011;63736;50.076;8.198;2023-02-28T04:58:22;468.53;;;73.37;;
75156;SDS011;63736;50.076;8.198;2023-02-28T05:00:48;446.85;;;77.15;;
75156;SDS011;63736;50.076;8.198;2023-02-28T05:05:39;441.10;;;75.50;;
75156;SDS011;63736;50.076;8.198;2023-02-28T05:10:30;438.80;;;76.33;;
75156;SDS011;63736;50.076;8.198;2023-02-28T05:15:22;439.75;;;76.80;;
75156;SDS011;63736;50.076;8.198;2023-02-28T05:17:47;453.50;;;77.20;;
75156;SDS011;63736;50.076;8.198;2023-02-28T05:20:12;458.75;;;76.00;;
75156;SDS011;63736;50.076;8.198;2023-02-28T05:22:41;447.08;;;78.07;;
75156;SDS011;63736;50.076;8.198;2023-02-28T05:25:06;429.35;;;78.25;;
75156;SDS011;63736;50.076;8.198;2023-02-28T05:29:59;429.65;;;75.15;;
75156;SDS011;63736;50.076;8.198;2023-02-28T05:34:53;438.50;;;73.60;;
75156;SDS011;63736;50.076;8.198;2023-02-28T05:37:18;449.60;;;75.00;;
75156;SDS011;63736;50.076;8.198;2023-02-28T05:39:44;442.00;;;74.70;;
75156;SDS011;63736;50.076;8.198;2023-02-28T05:42:09;444.30;;;74.20;;
75156;SDS011;63736;50.076;8.198;2023-02-28T05:44:34;445.30;;;74.70;;
75156;SDS011;63736;50.076;8.198;2023-02-28T05:47:00;464.57;;;74.80;;
75156;SDS011;63736;50.076;8.198;2023-02-28T05:49:25;303.20;;;39.00;;
75156;SDS011;63736;50.076;8.198;2023-02-28T05:51:51;320.20;;;39.23;;
75156;SDS011;63736;50.076;8.198;2023-02-28T05:54:16;300.27;;;42.27;;
75156;SDS011;63736;50.076;8.198;2023-02-28T05:56:41;313.67;;;38.53;;
75156;SDS011;63736;50.076;8.198;2023-02-28T05:59:09;302.23;;;40.97;;
75156;SDS011;63736;50.076;8.198;2023-02-28T06:01:36;294.05;;;33.58;;
75156;SDS011;63736;50.076;8.198;2023-02-28T06:04:04;433.40;;;81.37;;
75156;SDS011;63736;50.076;8.198;2023-02-28T06:06:32;477.80;;;72.35;;
75156;SDS011;63736;50.076;8.198;2023-02-28T06:08:59;453.70;;;70.65;;
75156;SDS011;63736;50.076;8.198;2023-02-28T06:11:25;502.67;;;69.03;;
75156;SDS011;63736;50.076;8.198;2023-02-28T06:16:21;461.90;;;70.20;;
75156;SDS011;63736;50.076;8.198;2023-02-28T06:18:47;501.75;;;69.60;;
75156;SDS011;63736;50.076;8.198;2023-02-28T06:21:12;513.40;;;69.90;;
75156;SDS011;63736;50.076;8.198;2023-02-28T06:23:38;494.23;;;69.17;;
75156;SDS011;63736;50.076;8.198;2023-02-28T06:26:03;509.60;;;68.80;;
75156;SDS011;63736;50.076;8.198;2023-02-28T06:28:29;495.08;;;74.07;;
75156;SDS011;63736;50.076;8.198;2023-02-28T06:30:54;512.70;;;68.55;;
75156;SDS011;63736;50.076;8.198;2023-02-28T06:33:19;495.05;;;68.20;;
75156;SDS011;63736;50.076;8.198;2023-02-28T06:38:11;493.73;;;68.20;;
75156;SDS011;63736;50.076;8.198;2023-02-28T06:40:36;492.85;;;68.30;;
75156;SDS011;63736;50.076;8.198;2023-02-28T06:45:27;488.75;;;68.25;;
75156;SDS011;63736;50.076;8.198;2023-02-28T06:47:52;511.30;;;69.40;;
75156;SDS011;63736;50.076;8.198;2023-02-28T06:50:18;493.60;;;66.80;;
75156;SDS011;63736;50.076;8.198;2023-02-28T06:52:44;515.17;;;68.67;;
75156;SDS011;63736;50.076;8.198;2023-02-28T06:55:09;479.05;;;69.25;;
75156;SDS011;63736;50.076;8.198;2023-02-28T06:57:35;482.07;;;69.90;;
75156;SDS011;63736;50.076;8.198;2023-02-28T07:00:04;482.80;;;69.70;;
75156;SDS011;63736;50.076;8.198;2023-02-28T07:02:33;469.75;;;70.20;;
75156;SDS011;63736;50.076;8.198;2023-02-28T07:05:02;385.40;;;66.70;;
75156;SDS011;63736;50.076;8.198;2023-02-28T07:07:29;490.80;;;72.80;;
75156;SDS011;63736;50.076;8.198;2023-02-28T07:12:19;1213.90;;;860.00;;
75156;SDS011;63736;50.076;8.198;2023-02-28T07:19:37;1142.50;;;220.20;;
75156;SDS011;63736;50.076;8.198;2023-02-28T07:22:03;1194.80;;;864.50;;
75156;SDS011;63736;50.076;8.198;2023-02-28T07:24:29;1263.60;;;871.70;;
75156;SDS011;63736;50.076;8.198;2023-02-28T07:29:20;487.95;;;97.50;;
75156;SDS011;63736;50.076;8.198;2023-02-28T07:43:54;1346.10;;;883.70;;
75156;SDS011;63736;50.076;8.198;2023-02-28T08:00:54;1153.90;;;229.10;;
75156;SDS011;63736;50.076;8.198;2023-02-28T08:25:09;341.75;;;36.60;;
75156;SDS011;63736;50.076;8.198;2023-02-28T08:37:16;301.10;;;28.45;;
75156;SDS011;63736;50.076;8.198;2023-02-28T08:39:41;307.40;;;30.45;;
75156;SDS011;63736;50.076;8.198;2023-02-28T08:42:07;289.43;;;27.30;;
75156;SDS011;63736;50.076;8.198;2023-02-28T08:44:32;300.10;;;28.10;;
75156;SDS011;63736;50.076;8.198;2023-02-28T08:46:57;302.95;;;29.35;;
75156;SDS011;63736;50.076;8.198;2023-02-28T08:49:23;305.17;;;33.40;;
75156;SDS011;63736;50.076;8.198;2023-02-28T08:51:48;299.30;;;28.40;;
75156;SDS011;63736;50.076;8.198;2023-02-28T08:54:13;304.57;;;32.67;;
75156;SDS011;63736;50.076;8.198;2023-02-28T08:56:41;298.20;;;29.60;;
75156;SDS011;63736;50.076;8.198;2023-02-28T08:59:08;304.60;;;33.65;;
75156;SDS011;63736;50.076;8.198;2023-02-28T09:01:34;306.15;;;30.35;;
75156;SDS011;63736;50.076;8.198;2023-02-28T09:04:01;316.10;;;32.77;;
75156;SDS011;63736;50.076;8.198;2023-02-28T09:06:27;313.75;;;31.73;;
75156;SDS011;63736;50.076;8.198;2023-02-28T09:08:53;316.17;;;32.83;;
75156;SDS011;63736;50.076;8.198;2023-02-28T09:11:23;312.15;;;32.10;;
75156;SDS011;63736;50.076;8.198;2023-02-28T09:13:48;311.00;;;31.73;;
75156;SDS011;63736;50.076;8.198;2023-02-28T09:16:15;318.20;;;32.60;;
75156;SDS011;63736;50.076;8.198;2023-02-28T09:18:41;318.92;;;34.33;;
75156;SDS011;63736;50.076;8.198;2023-02-28T09:21:08;320.58;;;34.80;;
75156;SDS011;63736;50.076;8.198;2023-02-28T09:23:38;319.52;;;34.10;;
75156;SDS011;63736;50.076;8.198;2023-02-28T09:26:05;317.60;;;33.40;;
75156;SDS011;63736;50.076;8.198;2023-02-28T09:28:31;310.33;;;31.17;;
75156;SDS011;63736;50.076;8.198;2023-02-28T09:30:56;308.40;;;30.70;;
75156;SDS011;63736;50.076;8.198;2023-02-28T09:33:25;312.00;;;31.88;;
75156;SDS011;63736;50.076;8.198;2023-02-28T09:35:51;302.70;;;30.40;;
75156;SDS011;63736;50.076;8.198;2023-02-28T09:38:23;308.20;;;30.42;;
75156;SDS011;63736;50.076;8.198;2023-02-28T09:40:53;304.30;;;30.00;;
75156;SDS011;63736;50.076;8.198;2023-02-28T09:43:21;308.38;;;30.55;;
75156;SDS011;63736;50.076;8.198;2023-02-28T09:46:07;304.00;;;30.10;;
75156;SDS011;63736;50.076;8.198;2023-02-28T09:48:39;310.85;;;32.00;;
75156;SDS011;63736;50.076;8.198;2023-02-28T09:54:05;312.83;;;36.03;;
75156;SDS011;63736;50.076;8.198;2023-02-28T09:56:36;313.33;;;32.17;;
75156;SDS011;63736;50.076;8.198;2023-02-28T09:59:11;328.40;;;40.00;;
75156;SDS011;63736;50.076;8.198;2023-02-28T10:01:55;319.50;;;35.20;;
75156;SDS011;63736;50.076;8.198;2023-02-28T10:04:42;357.93;;;46.10;;
75156;SDS011;63736;50.076;8.198;2023-02-28T10:07:31;350.23;;;41.63;;
75156;SDS011;63736;50.076;8.198;2023-02-28T10:10:17;368.57;;;51.33;;
75156;SDS011;63736;50.076;8.198;2023-02-28T10:12:47;394.05;;;74.20;;
75156;SDS011;63736;50.076;8.198;2023-02-28T10:15:17;388.20;;;73.10;;
75156;SDS011;63736;50.076;8.198;2023-02-28T10:17:43;379.93;;;65.00;;
75156;SDS011;63736;50.076;8.198;2023-02-28T10:20:17;376.40;;;63.55;;
75156;SDS011;63736;50.076;8.198;2023-02-28T10:25:21;364.33;;;50.35;;
75156;SDS011;63736;50.076;8.198;2023-02-28T10:27:49;380.40;;;63.95;;
75156;SDS011;63736;50.076;8.198;2023-02-28T10:30:18;379.02;;;67.57;;
75156;SDS011;63736;50.076;8.198;2023-02-28T10:32:46;361.10;;;49.20;;
75156;SDS011;63736;50.076;8.198;2023-02-28T10:35:16;367.98;;;57.90;;
75156;SDS011;63736;50.076;8.198;2023-02-28T10:37:47;334.07;;;41.67;;
75156;SDS011;63736;50.076;8.198;2023-02-28T10:42:42;344.33;;;43.00;;
75156;SDS011;63736;50.076;8.198;2023-02-28T10:45:19;348.48;;;43.25;;
75156;SDS011;63736;50.076;8.198;2023-02-28T10:50:26;351.00;;;43.67;;
75156;SDS011;63736;50.076;8.198;2023-02-28T10:53:14;369.30;;;58.88;;
75156;SDS011;63736;50.076;8.198;2023-02-28T10:56:00;367.63;;;59.25;;
75156;SDS011;63736;50.076;8.198;2023-02-28T10:58:52;362.25;;;54.15;;
75156;SDS011;63736;50.076;8.198;2023-02-28T11:07:17;357.60;;;48.58;;
75156;SDS011;63736;50.076;8.198;2023-02-28T11:09:45;359.23;;;50.60;;
75156;SDS011;63736;50.076;8.198;2023-02-28T11:12:28;367.45;;;58.95;;
75156;SDS011;63736;50.076;8.198;2023-02-28T11:15:04;382.55;;;75.90;;
75156;SDS011;63736;50.076;8.198;2023-02-28T11:17:43;387.90;;;79.50;;
75156;SDS011;63736;50.076;8.198;2023-02-28T11:20:10;394.60;;;82.70;;
75156;SDS011;63736;50.076;8.198;2023-02-28T11:22:46;394.80;;;82.20;;
75156;SDS011;63736;50.076;8.198;2023-02-28T11:25:16;390.45;;;80.00;;
75156;SDS011;63736;50.076;8.198;2023-02-28T11:27:48;393.90;;;81.80;;
75156;SDS011;63736;50.076;8.198;2023-02-28T11:32:55;397.00;;;81.75;;
75156;SDS011;63736;50.076;8.198;2023-02-28T11:37:55;414.50;;;83.80;;
75156;SDS011;63736;50.076;8.198;2023-02-28T11:40:24;415.98;;;81.25;;
75156;SDS011;63736;50.076;8.198;2023-02-28T11:46:25;424.05;;;81.10;;
75156;SDS011;63736;50.076;8.198;2023-02-28T11:49:19;428.20;;;84.00;;
75156;SDS011;63736;50.076;8.198;2023-02-28T11:51:58;430.00;;;79.70;;
75156;SDS011;63736;50.076;8.198;2023-02-28T11:57:27;435.95;;;79.40;;
75156;SDS011;63736;50.076;8.198;2023-02-28T12:00:03;436.60;;;79.30;;
75156;SDS011;63736;50.076;8.198;2023-02-28T12:05:29;443.30;;;79.90;;
75156;SDS011;63736;50.076;8.198;2023-02-28T12:08:06;445.43;;;78.80;;
75156;SDS011;63736;50.076;8.198;2023-02-28T12:11:11;444.87;;;78.70;;
75156;SDS011;63736;50.076;8.198;2023-02-28T12:14:05;444.17;;;79.77;;
75156;SDS011;63736;50.076;8.198;2023-02-28T12:19:56;440.53;;;80.47;;
75156;SDS011;63736;50.076;8.198;2023-02-28T12:27:45;416.05;;;79.85;;
75156;SDS011;63736;50.076;8.198;2023-02-28T12:32:52;419.67;;;80.03;;
75156;SDS011;63736;50.076;8.198;2023-02-28T12:35:23;432.23;;;79.45;;
75156;SDS011;63736;50.076;8.198;2023-02-28T12:37:57;432.40;;;78.28;;
75156;SDS011;63736;50.076;8.198;2023-02-28T12:40:28;440.30;;;78.30;;
75156;SDS011;63736;50.076;8.198;2023-02-28T12:43:06;440.90;;;77.70;;
75156;SDS011;63736;50.076;8.198;2023-02-28T12:48:09;442.80;;;79.25;;
75156;SDS011;63736;50.076;8.198;2023-02-28T12:50:40;443.98;;;79.00;;
75156;SDS011;63736;50.076;8.198;2023-02-28T12:53:12;439.92;;;78.20;;
75156;SDS011;63736;50.076;8.198;2023-02-28T13:03:49;444.70;;;78.03;;
75156;SDS011;63736;50.076;8.198;2023-02-28T13:09:22;443.65;;;82.80;;
75156;SDS011;63736;50.076;8.198;2023-02-28T13:11:51;448.65;;;78.90;;
75156;SDS011;63736;50.076;8.198;2023-02-28T13:14:20;447.95;;;81.75;;
75156;SDS011;63736;50.076;8.198;2023-02-28T13:19:32;447.75;;;77.20;;
75156;SDS011;63736;50.076;8.198;2023-02-28T13:21:59;445.55;;;77.45;;
75156;SDS011;63736;50.076;8.198;2023-02-28T13:27:32;449.70;;;77.55;;
75156;SDS011;63736;50.076;8.198;2023-02-28T13:30:01;459.80;;;78.20;;
75156;SDS011;63736;50.076;8.198;2023-02-28T13:32:46;468.40;;;76.45;;
75156;SDS011;63736;50.076;8.198;2023-02-28T13:35:45;464.00;;;75.90;;
75156;SDS011;63736;50.076;8.198;2023-02-28T13:38:22;462.75;;;76.70;;
75156;SDS011;63736;50.076;8.198;2023-02-28T13:41:21;454.65;;;77.50;;
75156;SDS011;63736;50.076;8.198;2023-02-28T13:46:30;448.90;;;75.53;;
75156;SDS011;63736;50.076;8.198;2023-02-28T13:48:56;451.25;;;75.30;;
75156;SDS011;63736;50.076;8.198;2023-02-28T13:57:27;455.63;;;77.10;;
75156;SDS011;63736;50.076;8.198;2023-02-28T14:02:54;458.50;;;78.05;;
75156;SDS011;63736;50.076;8.198;2023-02-28T14:05:30;457.97;;;78.80;;
75156;SDS011;63736;50.076;8.198;2023-02-28T14:07:59;462.97;;;75.87;;
75156;SDS011;63736;50.076;8.198;2023-02-28T14:10:45;465.40;;;76.40;;
75156;SDS011;63736;50.076;8.198;2023-02-28T14:13:36;464.50;;;78.17;;
75156;SDS011;63736;50.076;8.198;2023-02-28T14:16:09;463.10;;;77.00;;
75156;SDS011;63736;50.076;8.198;2023-02-28T14:18:38;466.40;;;76.10;;
75156;SDS011;63736;50.076;8.198;2023-02-28T14:21:11;470.47;;;76.70;;
75156;SDS011;63736;50.076;8.198;2023-02-28T14:32:02;466.75;;;76.55;;
75156;SDS011;63736;50.076;8.198;2023-02-28T14:34:45;467.73;;;77.57;;
75156;SDS011;63736;50.076;8.198;2023-02-28T14:37:25;466.95;;;78.30;;
75156;SDS011;63736;50.076;8.198;2023-02-28T14:39:53;464.45;;;76.55;;
75156;SDS011;63736;50.076;8.198;2023-02-28T14:42:39;465.80;;;77.17;;
75156;SDS011;63736;50.076;8.198;2023-02-28T14:45:17;464.42;;;76.90;;
75156;SDS011;63736;50.076;8.198;2023-02-28T14:47:44;463.60;;;78.40;;
75156;SDS011;63736;50.076;8.198;2023-02-28T14:52:46;295.93;;;31.07;;
75156;SDS011;63736;50.076;8.198;2023-02-28T14:55:15;387.40;;;77.50;;
75156;SDS011;63736;50.076;8.198;2023-02-28T14:57:56;393.10;;;78.95;;
75156;SDS011;63736;50.076;8.198;2023-02-28T15:00:26;420.30;;;84.78;;
75156;SDS011;63736;50.076;8.198;2023-02-28T15:02:53;438.70;;;80.60;;
75156;SDS011;63736;50.076;8.198;2023-02-28T15:08:09;452.97;;;81.00;;
75156;SDS011;63736;50.076;8.198;2023-02-28T15:10:38;466.07;;;78.20;;
75156;SDS011;63736;50.076;8.198;2023-02-28T15:13:07;459.20;;;80.00;;
75156;SDS011;63736;50.076;8.198;2023-02-28T15:15:40;461.30;;;79.67;;
75156;SDS011;63736;50.076;8.198;2023-02-28T15:18:10;464.90;;;79.20;;
75156;SDS011;63736;50.076;8.198;2023-02-28T15:20:41;465.20;;;79.10;;
75156;SDS011;63736;50.076;8.198;2023-02-28T15:23:09;462.40;;;79.80;;
75156;SDS011;63736;50.076;8.198;2023-02-28T15:25:35;467.80;;;76.72;;
75156;SDS011;63736;50.076;8.198;2023-02-28T15:28:01;464.43;;;77.23;;
75156;SDS011;63736;50.076;8.198;2023-02-28T15:30:27;459.50;;;77.20;;
75156;SDS011;63736;50.076;8.198;2023-02-28T15:33:02;463.60;;;75.85;;
75156;SDS011;63736;50.076;8.198;2023-02-28T15:35:42;460.27;;;76.63;;
75156;SDS011;63736;50.076;8.198;2023-02-28T15:38:16;460.15;;;75.95;;
75156;SDS011;63736;50.076;8.198;2023-02-28T15:40:50;460.80;;;74.50;;
75156;SDS011;63736;50.076;8.198;2023-02-28T15:43:24;464.20;;;75.50;;
75156;SDS011;63736;50.076;8.198;2023-02-28T15:45:52;464.53;;;74.13;;
75156;SDS011;63736;50.076;8.198;2023-02-28T15:48:42;467.00;;;74.63;;
75156;SDS011;63736;50.076;8.198;2023-02-28T15:53:54;474.17;;;74.67;;
75156;SDS011;63736;50.076;8.198;2023-02-28T15:56:26;470.50;;;75.35;;
75156;SDS011;63736;50.076;8.198;2023-02-28T15:58:55;468.90;;;73.30;;
75156;SDS011;63736;50.076;8.198;2023-02-28T16:01:26;473.77;;;73.32;;
75156;SDS011;63736;50.076;8.198;2023-02-28T16:03:54;469.85;;;72.10;;
75156;SDS011;63736;50.076;8.198;2023-02-28T16:06:25;474.17;;;73.85;;
75156;SDS011;63736;50.076;8.198;2023-02-28T16:08:55;474.10;;;73.40;;
75156;SDS011;63736;50.076;8.198;2023-02-28T16:11:21;472.60;;;72.70;;
75156;SDS011;63736;50.076;8.198;2023-02-28T16:13:47;470.10;;;73.80;;
75156;SDS011;63736;50.076;8.198;2023-02-28T16:16:15;467.50;;;72.60;;
75156;SDS011;63736;50.076;8.198;2023-02-28T16:18:41;475.90;;;73.35;;
75156;SDS011;63736;50.076;8.198;2023-02-28T16:21:08;470.93;;;73.13;;
75156;SDS011;63736;50.076;8.198;2023-02-28T16:23:33;469.75;;;73.15;;
75156;SDS011;63736;50.076;8.198;2023-02-28T16:25:59;464.40;;;71.70;;
75156;SDS011;63736;50.076;8.198;2023-02-28T16:28:30;466.60;;;72.30;;
75156;SDS011;63736;50.076;8.198;2023-02-28T16:30:59;464.25;;;73.30;;
75156;SDS011;63736;50.076;8.198;2023-02-28T16:33:25;461.67;;;73.18;;
75156;SDS011;63736;50.076;8.198;2023-02-28T16:35:51;460.80;;;72.60;;
75156;SDS011;63736;50.076;8.198;2023-02-28T16:38:17;458.90;;;73.15;;
75156;SDS011;63736;50.076;8.198;2023-02-28T16:40:42;458.60;;;73.07;;
75156;SDS011;63736;50.076;8.198;2023-02-28T16:43:09;458.60;;;78.20;;
75156;SDS011;63736;50.076;8.198;2023-02-28T16:45:42;458.40;;;73.47;;
75156;SDS011;63736;50.076;8.198;2023-02-28T16:48:10;456.63;;;74.90;;
75156;SDS011;63736;50.076;8.198;2023-02-28T16:50:38;453.15;;;72.85;;
75156;SDS011;63736;50.076;8.198;2023-02-28T16:53:03;453.80;;;76.50;;
75156;SDS011;63736;50.076;8.198;2023-02-28T16:55:29;452.80;;;73.65;;
75156;SDS011;63736;50.076;8.198;2023-02-28T16:57:55;452.90;;;76.50;;
75156;SDS011;63736;50.076;8.198;2023-02-28T17:00:22;444.90;;;73.20;;
75156;SDS011;63736;50.076;8.198;2023-02-28T17:02:49;445.80;;;76.95;;
75156;SDS011;63736;50.076;8.198;2023-02-28T17:05:15;442.40;;;73.43;;
75156;SDS011;63736;50.076;8.198;2023-02-28T17:07:40;437.90;;;73.87;;
75156;SDS011;63736;50.076;8.198;2023-02-28T17:10:15;429.15;;;73.60;;
75156;SDS011;63736;50.076;8.198;2023-02-28T17:12:45;428.95;;;77.70;;
75156;SDS011;63736;50.076;8.198;2023-02-28T17:15:11;422.50;;;73.75;;
75156;SDS011;63736;50.076;8.198;2023-02-28T17:17:38;421.63;;;73.53;;
75156;SDS011;63736;50.076;8.198;2023-02-28T17:20:04;421.02;;;74.47;;
75156;SDS011;63736;50.076;8.198;2023-02-28T17:22:31;422.00;;;78.68;;
75156;SDS011;63736;50.076;8.198;2023-02-28T17:24:57;418.20;;;75.70;;
75156;SDS011;63736;50.076;8.198;2023-02-28T17:27:23;415.60;;;76.80;;
75156;SDS011;63736;50.076;8.198;2023-02-28T17:29:49;414.30;;;76.20;;
75156;SDS011;63736;50.076;8.198;2023-02-28T17:32:15;416.30;;;78.53;;
75156;SDS011;63736;50.076;8.198;2023-02-28T17:34:40;414.40;;;77.20;;
75156;SDS011;63736;50.076;8.198;2023-02-28T17:37:07;407.90;;;76.60;;
75156;SDS011;63736;50.076;8.198;2023-02-28T17:39:33;411.20;;;76.55;;
75156;SDS011;63736;50.076;8.198;2023-02-28T17:41:59;415.90;;;76.40;;
75156;SDS011;63736;50.076;8.198;2023-02-28T17:44:24;439.25;;;72.45;;
75156;SDS011;63736;50.076;8.198;2023-02-28T17:46:50;429.93;;;72.83;;
75156;SDS011;63736;50.076;8.198;2023-02-28T17:49:16;426.50;;;73.80;;
75156;SDS011;63736;50.076;8.198;2023-02-28T17:51:42;418.93;;;77.23;;
75156;SDS011;63736;50.076;8.198;2023-02-28T17:54:07;418.70;;;77.70;;
75156;SDS011;63736;50.076;8.198;2023-02-28T17:56:33;419.55;;;76.25;;